sensor_id;sensor_type;location;lat;lon;timestamp;temperature;humidity
53643;DHT22;39546;45.534;12.048;2023-07-16T00:04:15;29.30;78.40
53643;DHT22;39546;45.534;12.048;2023-07-16T00:10:17;29.30;78.60
53643;DHT22;39546;45.534;12.048;2023-07-16T00:16:19;29.20;78.70
53643;DHT22;39546;45.534;12.048;2023-07-16T00:22:21;29.10;78.80
53643;DHT22;39546;45.534;12.048;2023-07-16T00:28:23;29.00;78.80
53643;DHT22;39546;45.534;12.048;2023-07-16T00:34:25;29.10;78.70
53643;DHT22;39546;45.534;12.048;2023-07-16T00:40:27;29.20;78.50
53643;DHT22;39546;45.534;12.048;2023-07-16T00:46:29;29.20;78.60
53643;DHT22;39546;45.534;12.048;2023-07-16T00:52:32;29.10;78.60
53643;DHT22;39546;45.534;12.048;2023-07-16T00:58:34;29.00;78.80
53643;DHT22;39546;45.534;12.048;2023-07-16T01:04:36;28.90;78.90
53643;DHT22;39546;45.534;12.048;2023-07-16T01:10:39;28.80;79.00
53643;DHT22;39546;45.534;12.048;2023-07-16T01:16:42;28.90;79.20
53643;DHT22;39546;45.534;12.048;2023-07-16T01:34:57;28.80;79.40
53643;DHT22;39546;45.534;12.048;2023-07-16T01:41:00;28.70;79.50
53643;DHT22;39546;45.534;12.048;2023-07-16T01:47:12;28.60;79.50
53643;DHT22;39546;45.534;12.048;2023-07-16T01:53:15;28.60;79.40
53643;DHT22;39546;45.534;12.048;2023-07-16T01:59:17;28.40;79.50
53643;DHT22;39546;45.534;12.048;2023-07-16T02:05:19;28.40;79.70
53643;DHT22;39546;45.534;12.048;2023-07-16T02:11:22;28.40;79.40
53643;DHT22;39546;45.534;12.048;2023-07-16T02:17:43;28.50;79.30
53643;DHT22;39546;45.534;12.048;2023-07-16T02:23:45;28.50;79.20
53643;DHT22;39546;45.534;12.048;2023-07-16T02:29:48;28.30;79.50
53643;DHT22;39546;45.534;12.048;2023-07-16T02:35:51;28.20;79.70
53643;DHT22;39546;45.534;12.048;2023-07-16T02:41:54;28.20;79.80
53643;DHT22;39546;45.534;12.048;2023-07-16T02:48:03;28.10;79.90
53643;DHT22;39546;45.534;12.048;2023-07-16T02:54:06;28.20;79.80
53643;DHT22;39546;45.534;12.048;2023-07-16T03:00:08;28.30;79.70
53643;DHT22;39546;45.534;12.048;2023-07-16T03:06:11;28.30;79.60
53643;DHT22;39546;45.534;12.048;2023-07-16T03:12:13;28.30;79.80
53643;DHT22;39546;45.534;12.048;2023-07-16T03:18:17;28.20;80.00
53643;DHT22;39546;45.534;12.048;2023-07-16T03:24:20;28.20;80.10
53643;DHT22;39546;45.534;12.048;2023-07-16T03:30:22;28.10;80.70
53643;DHT22;39546;45.534;12.048;2023-07-16T03:36:24;28.10;80.70
53643;DHT22;39546;45.534;12.048;2023-07-16T03:42:26;28.10;80.70
53643;DHT22;39546;45.534;12.048;2023-07-16T03:48:28;28.00;80.90
53643;DHT22;39546;45.534;12.048;2023-07-16T03:54:30;28.00;81.10
53643;DHT22;39546;45.534;12.048;2023-07-16T04:00:32;28.00;81.30
53643;DHT22;39546;45.534;12.048;2023-07-16T04:06:34;28.00;81.20
53643;DHT22;39546;45.534;12.048;2023-07-16T04:12:36;27.90;81.20
53643;DHT22;39546;45.534;12.048;2023-07-16T04:18:38;27.90;81.30
53643;DHT22;39546;45.534;12.048;2023-07-16T04:24:40;28.00;81.40
53643;DHT22;39546;45.534;12.048;2023-07-16T04:30:42;27.90;81.20
53643;DHT22;39546;45.534;12.048;2023-07-16T04:36:44;28.00;81.30
53643;DHT22;39546;45.534;12.048;2023-07-16T04:42:46;28.00;81.40
53643;DHT22;39546;45.534;12.048;2023-07-16T04:48:48;28.00;81.50
53643;DHT22;39546;45.534;12.048;2023-07-16T04:54:50;28.00;81.90
53643;DHT22;39546;45.534;12.048;2023-07-16T05:00:51;28.10;82.10
53643;DHT22;39546;45.534;12.048;2023-07-16T05:06:53;28.10;82.30
53643;DHT22;39546;45.534;12.048;2023-07-16T05:12:55;28.00;82.60
53643;DHT22;39546;45.534;12.048;2023-07-16T05:18:57;28.00;82.70
53643;DHT22;39546;45.534;12.048;2023-07-16T05:24:59;28.20;82.40
53643;DHT22;39546;45.534;12.048;2023-07-16T05:31:02;28.30;82.20
53643;DHT22;39546;45.534;12.048;2023-07-16T05:37:04;28.30;82.20
53643;DHT22;39546;45.534;12.048;2023-07-16T05:43:06;28.40;82.20
53643;DHT22;39546;45.534;12.048;2023-07-16T05:49:08;28.50;82.40
53643;DHT22;39546;45.534;12.048;2023-07-16T05:55:10;28.60;82.40
53643;DHT22;39546;45.534;12.048;2023-07-16T06:01:12;28.70;82.50
53643;DHT22;39546;45.534;12.048;2023-07-16T06:07:14;28.80;82.20
53643;DHT22;39546;45.534;12.048;2023-07-16T06:13:16;28.90;81.80
53643;DHT22;39546;45.534;12.048;2023-07-16T06:19:18;29.00;81.60
53643;DHT22;39546;45.534;12.048;2023-07-16T06:25:20;29.10;81.00
53643;DHT22;39546;45.534;12.048;2023-07-16T06:31:22;29.20;81.20
53643;DHT22;39546;45.534;12.048;2023-07-16T06:37:24;29.30;81.10
53643;DHT22;39546;45.534;12.048;2023-07-16T06:43:27;29.40;80.90
53643;DHT22;39546;45.534;12.048;2023-07-16T06:49:30;29.50;81.00
53643;DHT22;39546;45.534;12.048;2023-07-16T06:55:33;29.60;81.20
53643;DHT22;39546;45.534;12.048;2023-07-16T07:01:35;29.60;80.90
53643;DHT22;39546;45.534;12.048;2023-07-16T07:07:37;29.80;80.50
53643;DHT22;39546;45.534;12.048;2023-07-16T07:13:39;29.80;80.50
53643;DHT22;39546;45.534;12.048;2023-07-16T07:19:42;29.80;80.10
53643;DHT22;39546;45.534;12.048;2023-07-16T07:25:53;29.90;79.70
53643;DHT22;39546;45.534;12.048;2023-07-16T07:31:55;30.00;79.70
53643;DHT22;39546;45.534;12.048;2023-07-16T07:37:58;30.10;79.60
53643;DHT22;39546;45.534;12.048;2023-07-16T07:44:00;30.20;79.40
53643;DHT22;39546;45.534;12.048;2023-07-16T07:50:02;30.30;79.00
53643;DHT22;39546;45.534;12.048;2023-07-16T07:56:04;30.30;78.80
53643;DHT22;39546;45.534;12.048;2023-07-16T08:02:06;30.40;78.00
53643;DHT22;39546;45.534;12.048;2023-07-16T08:08:08;30.50;77.90
53643;DHT22;39546;45.534;12.048;2023-07-16T08:14:11;30.60;77.40
53643;DHT22;39546;45.534;12.048;2023-07-16T08:20:13;30.70;77.10
53643;DHT22;39546;45.534;12.048;2023-07-16T08:26:16;30.80;76.80
53643;DHT22;39546;45.534;12.048;2023-07-16T08:32:18;30.90;76.40
53643;DHT22;39546;45.534;12.048;2023-07-16T08:38:21;31.00;76.20
53643;DHT22;39546;45.534;12.048;2023-07-16T08:44:23;31.10;75.30
53643;DHT22;39546;45.534;12.048;2023-07-16T08:50:26;31.20;75.10
53643;DHT22;39546;45.534;12.048;2023-07-16T08:56:29;31.30;73.70
53643;DHT22;39546;45.534;12.048;2023-07-16T09:02:31;31.30;73.30
53643;DHT22;39546;45.534;12.048;2023-07-16T09:08:33;31.40;73.30
53643;DHT22;39546;45.534;12.048;2023-07-16T09:14:35;31.60;72.70
53643;DHT22;39546;45.534;12.048;2023-07-16T09:20:40;31.70;72.50
53643;DHT22;39546;45.534;12.048;2023-07-16T09:26:49;31.80;71.80
53643;DHT22;39546;45.534;12.048;2023-07-16T09:32:52;31.90;71.00
53643;DHT22;39546;45.534;12.048;2023-07-16T09:38:54;32.00;70.40
53643;DHT22;39546;45.534;12.048;2023-07-16T09:44:58;32.10;69.80
53643;DHT22;39546;45.534;12.048;2023-07-16T09:51:01;32.20;69.20
53643;DHT22;39546;45.534;12.048;2023-07-16T09:57:05;32.30;69.60
53643;DHT22;39546;45.534;12.048;2023-07-16T10:03:08;32.40;69.40
53643;DHT22;39546;45.534;12.048;2023-07-16T10:09:10;32.60;70.60
53643;DHT22;39546;45.534;12.048;2023-07-16T10:15:13;32.70;70.00
53643;DHT22;39546;45.534;12.048;2023-07-16T10:21:23;32.80;70.20
53643;DHT22;39546;45.534;12.048;2023-07-16T10:27:30;32.90;69.80
53643;DHT22;39546;45.534;12.048;2023-07-16T10:33:32;32.90;68.40
53643;DHT22;39546;45.534;12.048;2023-07-16T10:39:34;33.00;69.00
53643;DHT22;39546;45.534;12.048;2023-07-16T10:45:36;33.30;69.50
53643;DHT22;39546;45.534;12.048;2023-07-16T10:51:39;33.50;69.90
53643;DHT22;39546;45.534;12.048;2023-07-16T10:57:41;33.50;70.00
53643;DHT22;39546;45.534;12.048;2023-07-16T11:03:43;33.20;70.60
53643;DHT22;39546;45.534;12.048;2023-07-16T11:09:48;33.30;70.50
53643;DHT22;39546;45.534;12.048;2023-07-16T11:15:50;33.60;69.00
53643;DHT22;39546;45.534;12.048;2023-07-16T11:21:52;34.00;68.70
53643;DHT22;39546;45.534;12.048;2023-07-16T11:27:56;34.30;68.30
53643;DHT22;39546;45.534;12.048;2023-07-16T11:34:00;34.30;68.10
53643;DHT22;39546;45.534;12.048;2023-07-16T11:40:07;34.60;67.30
53643;DHT22;39546;45.534;12.048;2023-07-16T11:46:19;34.70;66.80
53643;DHT22;39546;45.534;12.048;2023-07-16T11:52:27;35.00;65.60
53643;DHT22;39546;45.534;12.048;2023-07-16T11:58:29;35.40;64.20
53643;DHT22;39546;45.534;12.048;2023-07-16T12:04:31;35.30;66.30
53643;DHT22;39546;45.534;12.048;2023-07-16T12:10:33;35.40;64.70
53643;DHT22;39546;45.534;12.048;2023-07-16T12:16:35;35.50;65.00
53643;DHT22;39546;45.534;12.048;2023-07-16T12:22:38;35.40;65.20
53643;DHT22;39546;45.534;12.048;2023-07-16T12:28:40;35.40;63.60
53643;DHT22;39546;45.534;12.048;2023-07-16T12:34:42;35.50;63.40
53643;DHT22;39546;45.534;12.048;2023-07-16T12:40:44;35.60;62.80
53643;DHT22;39546;45.534;12.048;2023-07-16T12:46:46;35.60;63.40
53643;DHT22;39546;45.534;12.048;2023-07-16T12:52:49;35.80;63.10
53643;DHT22;39546;45.534;12.048;2023-07-16T12:58:51;35.70;63.20
53643;DHT22;39546;45.534;12.048;2023-07-16T13:04:53;35.50;64.20
53643;DHT22;39546;45.534;12.048;2023-07-16T13:10:55;35.60;62.60
53643;DHT22;39546;45.534;12.048;2023-07-16T13:16:58;35.60;63.50
53643;DHT22;39546;45.534;12.048;2023-07-16T13:23:00;35.50;62.50
53643;DHT22;39546;45.534;12.048;2023-07-16T13:29:02;35.60;61.30
53643;DHT22;39546;45.534;12.048;2023-07-16T13:35:04;35.40;63.00
53643;DHT22;39546;45.534;12.048;2023-07-16T13:41:07;35.40;62.20
53643;DHT22;39546;45.534;12.048;2023-07-16T13:47:09;35.40;62.80
53643;DHT22;39546;45.534;12.048;2023-07-16T13:53:11;35.30;62.10
53643;DHT22;39546;45.534;12.048;2023-07-16T13:59:13;35.40;61.30
53643;DHT22;39546;45.534;12.048;2023-07-16T14:05:16;35.40;62.60
53643;DHT22;39546;45.534;12.048;2023-07-16T14:11:18;35.20;62.80
53643;DHT22;39546;45.534;12.048;2023-07-16T14:17:20;35.20;63.60
53643;DHT22;39546;45.534;12.048;2023-07-16T14:23:22;35.30;61.80
53643;DHT22;39546;45.534;12.048;2023-07-16T14:29:25;35.30;60.30
53643;DHT22;39546;45.534;12.048;2023-07-16T14:35:29;35.40;59.00
53643;DHT22;39546;45.534;12.048;2023-07-16T14:41:31;35.40;58.70
53643;DHT22;39546;45.534;12.048;2023-07-16T14:47:33;35.40;59.70
53643;DHT22;39546;45.534;12.048;2023-07-16T14:53:43;35.40;59.80
53643;DHT22;39546;45.534;12.048;2023-07-16T14:59:46;35.40;59.10
53643;DHT22;39546;45.534;12.048;2023-07-16T15:05:48;35.50;58.60
53643;DHT22;39546;45.534;12.048;2023-07-16T15:11:50;35.50;58.50
53643;DHT22;39546;45.534;12.048;2023-07-16T15:17:52;35.50;57.90
53643;DHT22;39546;45.534;12.048;2023-07-16T15:23:54;35.50;56.90
53643;DHT22;39546;45.534;12.048;2023-07-16T15:29:56;35.50;57.00
53643;DHT22;39546;45.534;12.048;2023-07-16T15:35:58;35.70;56.80
53643;DHT22;39546;45.534;12.048;2023-07-16T15:42:44;35.80;57.00
53643;DHT22;39546;45.534;12.048;2023-07-16T15:48:46;35.60;56.90
53643;DHT22;39546;45.534;12.048;2023-07-16T15:54:48;35.60;57.60
53643;DHT22;39546;45.534;12.048;2023-07-16T16:01:08;35.60;57.60
53643;DHT22;39546;45.534;12.048;2023-07-16T16:07:09;35.60;57.40
53643;DHT22;39546;45.534;12.048;2023-07-16T16:13:12;35.60;57.60
53643;DHT22;39546;45.534;12.048;2023-07-16T16:19:18;35.50;57.40
53643;DHT22;39546;45.534;12.048;2023-07-16T16:25:20;35.40;57.90
53643;DHT22;39546;45.534;12.048;2023-07-16T16:31:22;35.40;58.30
53643;DHT22;39546;45.534;12.048;2023-07-16T16:37:24;35.30;58.20
53643;DHT22;39546;45.534;12.048;2023-07-16T16:43:26;35.30;59.70
53643;DHT22;39546;45.534;12.048;2023-07-16T16:49:28;35.20;59.70
53643;DHT22;39546;45.534;12.048;2023-07-16T16:55:30;35.30;59.70
53643;DHT22;39546;45.534;12.048;2023-07-16T17:01:32;35.20;59.70
53643;DHT22;39546;45.534;12.048;2023-07-16T17:07:34;35.20;60.00
53643;DHT22;39546;45.534;12.048;2023-07-16T17:13:36;35.10;61.70
53643;DHT22;39546;45.534;12.048;2023-07-16T17:19:41;35.00;62.00
53643;DHT22;39546;45.534;12.048;2023-07-16T17:25:43;35.00;61.80
53643;DHT22;39546;45.534;12.048;2023-07-16T17:31:45;34.90;61.10
53643;DHT22;39546;45.534;12.048;2023-07-16T17:37:47;34.90;60.20
53643;DHT22;39546;45.534;12.048;2023-07-16T17:44:05;35.00;59.70
53643;DHT22;39546;45.534;12.048;2023-07-16T17:50:07;35.00;60.40
53643;DHT22;39546;45.534;12.048;2023-07-16T17:56:09;35.00;60.70
53643;DHT22;39546;45.534;12.048;2023-07-16T18:02:11;35.10;61.30
53643;DHT22;39546;45.534;12.048;2023-07-16T18:08:13;35.10;60.90
53643;DHT22;39546;45.534;12.048;2023-07-16T18:14:15;35.00;61.50
53643;DHT22;39546;45.534;12.048;2023-07-16T18:20:42;34.60;63.10
53643;DHT22;39546;45.534;12.048;2023-07-16T18:26:44;34.40;64.10
53643;DHT22;39546;45.534;12.048;2023-07-16T18:32:46;34.20;64.90
53643;DHT22;39546;45.534;12.048;2023-07-16T18:38:48;34.00;66.00
53643;DHT22;39546;45.534;12.048;2023-07-16T18:44:51;33.80;67.50
53643;DHT22;39546;45.534;12.048;2023-07-16T18:50:58;33.60;68.50
53643;DHT22;39546;45.534;12.048;2023-07-16T18:57:02;33.60;68.50
53643;DHT22;39546;45.534;12.048;2023-07-16T19:03:04;33.40;69.10
53643;DHT22;39546;45.534;12.048;2023-07-16T19:09:06;33.40;69.40
53643;DHT22;39546;45.534;12.048;2023-07-16T19:15:09;33.30;69.80
53643;DHT22;39546;45.534;12.048;2023-07-16T19:21:11;33.20;69.90
53643;DHT22;39546;45.534;12.048;2023-07-16T19:27:13;33.10;70.10
53643;DHT22;39546;45.534;12.048;2023-07-16T19:33:15;33.00;70.30
53643;DHT22;39546;45.534;12.048;2023-07-16T19:39:18;33.00;70.50
53643;DHT22;39546;45.534;12.048;2023-07-16T19:45:21;32.90;70.70
53643;DHT22;39546;45.534;12.048;2023-07-16T19:51:23;32.90;71.00
53643;DHT22;39546;45.534;12.048;2023-07-16T19:57:25;32.80;71.20
53643;DHT22;39546;45.534;12.048;2023-07-16T20:03:29;32.70;71.30
53643;DHT22;39546;45.534;12.048;2023-07-16T20:09:31;32.60;71.50
53643;DHT22;39546;45.534;12.048;2023-07-16T20:15:34;32.50;71.80
53643;DHT22;39546;45.534;12.048;2023-07-16T20:21:37;32.40;73.30
53643;DHT22;39546;45.534;12.048;2023-07-16T20:27:44;32.30;74.50
53643;DHT22;39546;45.534;12.048;2023-07-16T20:33:47;32.30;74.40
53643;DHT22;39546;45.534;12.048;2023-07-16T20:39:49;32.20;74.30
53643;DHT22;39546;45.534;12.048;2023-07-16T20:45:51;32.10;74.20
53643;DHT22;39546;45.534;12.048;2023-07-16T20:51:54;32.10;74.40
53643;DHT22;39546;45.534;12.048;2023-07-16T20:57:56;32.10;74.40
53643;DHT22;39546;45.534;12.048;2023-07-16T21:03:59;32.20;74.30
53643;DHT22;39546;45.534;12.048;2023-07-16T21:10:02;32.00;74.40
53643;DHT22;39546;45.534;12.048;2023-07-16T21:16:05;32.00;74.90
53643;DHT22;39546;45.534;12.048;2023-07-16T21:22:07;32.00;75.00
53643;DHT22;39546;45.534;12.048;2023-07-16T21:28:09;31.90;75.10
53643;DHT22;39546;45.534;12.048;2023-07-16T21:34:11;31.90;75.30
53643;DHT22;39546;45.534;12.048;2023-07-16T21:40:13;31.80;76.40
53643;DHT22;39546;45.534;12.048;2023-07-16T21:46:16;31.70;77.30
53643;DHT22;39546;45.534;12.048;2023-07-16T21:52:19;31.60;77.90
53643;DHT22;39546;45.534;12.048;2023-07-16T21:58:21;31.60;77.60
53643;DHT22;39546;45.534;12.048;2023-07-16T22:04:23;31.60;77.30
53643;DHT22;39546;45.534;12.048;2023-07-16T22:10:25;31.60;77.10
53643;DHT22;39546;45.534;12.048;2023-07-16T22:16:27;31.50;77.10
53643;DHT22;39546;45.534;12.048;2023-07-16T22:22:35;31.30;77.20
53643;DHT22;39546;45.534;12.048;2023-07-16T22:28:43;31.40;77.20
53643;DHT22;39546;45.534;12.048;2023-07-16T22:34:45;31.30;78.10
53643;DHT22;39546;45.534;12.048;2023-07-16T22:40:48;31.20;79.10
53643;DHT22;39546;45.534;12.048;2023-07-16T22:46:50;31.10;79.70
53643;DHT22;39546;45.534;12.048;2023-07-16T22:52:52;31.10;80.30
53643;DHT22;39546;45.534;12.048;2023-07-16T22:58:54;30.90;80.60
53643;DHT22;39546;45.534;12.048;2023-07-16T23:04:56;30.90;80.70
53643;DHT22;39546;45.534;12.048;2023-07-16T23:10:58;30.90;80.10
53643;DHT22;39546;45.534;12.048;2023-07-16T23:17:01;31.00;80.00
53643;DHT22;39546;45.534;12.048;2023-07-16T23:23:03;30.90;80.40
53643;DHT22;39546;45.534;12.048;2023-07-16T23:29:05;31.00;80.20
53643;DHT22;39546;45.534;12.048;2023-07-16T23:35:07;30.90;79.90
53643;DHT22;39546;45.534;12.048;2023-07-16T23:41:10;30.80;79.90
53643;DHT22;39546;45.534;12.048;2023-07-16T23:47:12;30.80;79.70
53643;DHT22;39546;45.534;12.048;2023-07-16T23:53:14;30.70;79.50
53643;DHT22;39546;45.534;12.048;2023-07-16T23:59:17;30.70;79.40
